createdAt,value
2018-09-21T00:00:43.311Z,4.90
2018-09-21T00:03:12.490Z,4.43
2018-09-21T00:05:40.999Z,5.20
2018-09-21T00:08:09.505Z,6.10
2018-09-21T00:10:38.021Z,5.10
2018-09-21T00:13:06.595Z,4.73
2018-09-21T00:15:35.227Z,5.20
2018-09-21T00:18:03.746Z,5.23
2018-09-21T00:20:32.236Z,4.30
2018-09-21T00:23:00.770Z,5.10
2018-09-21T00:25:29.304Z,5.27
2018-09-21T00:27:57.830Z,5.10
2018-09-21T00:30:26.346Z,4.10
2018-09-21T00:32:57.734Z,5.00
2018-09-21T00:35:26.206Z,4.90
2018-09-21T00:37:54.757Z,5.17
2018-09-21T00:40:23.292Z,5.30
2018-09-21T00:42:51.896Z,4.60
2018-09-21T00:45:20.434Z,5.20
2018-09-21T00:47:49.014Z,5.03
2018-09-21T00:50:17.505Z,5.90
2018-09-21T00:52:46.038Z,5.33
2018-09-21T00:55:14.534Z,4.60
2018-09-21T00:57:43.077Z,5.03
2018-09-21T01:00:11.682Z,5.20
2018-09-21T01:02:40.254Z,5.60
2018-09-21T01:05:08.820Z,4.60
2018-09-21T01:07:37.376Z,5.53
2018-09-21T01:10:05.986Z,5.43
2018-09-21T01:12:34.566Z,5.13
2018-09-21T01:15:03.149Z,5.33
2018-09-21T01:17:31.722Z,5.40
2018-09-21T01:20:00.314Z,5.10
2018-09-21T01:22:28.880Z,5.70
2018-09-21T01:24:57.507Z,5.73
2018-09-21T01:27:26.032Z,5.27
2018-09-21T01:29:54.597Z,4.80
2018-09-21T01:32:23.183Z,5.10
2018-09-21T01:34:51.749Z,5.00
2018-09-21T01:37:20.281Z,4.47
2018-09-21T01:39:48.909Z,6.00
2018-09-21T01:42:17.458Z,5.90
2018-09-21T01:44:46.017Z,5.93
2018-09-21T01:47:14.573Z,5.50
2018-09-21T01:49:43.129Z,5.30
2018-09-21T01:52:11.686Z,5.70
2018-09-21T01:54:40.275Z,5.43
2018-09-21T01:57:08.870Z,5.20
2018-09-21T01:59:37.442Z,6.13
2018-09-21T02:02:06.089Z,5.73
2018-09-21T02:04:41.406Z,5.33
2018-09-21T02:07:11.100Z,4.70
2018-09-21T02:09:39.843Z,5.43
2018-09-21T02:12:08.406Z,5.30
2018-09-21T02:14:37.033Z,5.03
2018-09-21T02:17:05.691Z,5.60
2018-09-21T02:19:34.296Z,4.77
2018-09-21T02:22:02.853Z,5.30
2018-09-21T02:24:31.402Z,5.07
2018-09-21T02:27:00.004Z,5.30
2018-09-21T02:29:28.550Z,5.20
2018-09-21T02:31:57.145Z,5.20
2018-09-21T02:34:25.772Z,5.50
2018-09-21T02:36:54.349Z,6.13
2018-09-21T02:39:22.922Z,5.30
2018-09-21T02:41:51.480Z,4.80
2018-09-21T02:44:20.030Z,5.73
2018-09-21T02:46:48.587Z,5.33
2018-09-21T02:49:17.095Z,4.30
2018-09-21T02:51:45.648Z,5.50
2018-09-21T02:54:14.172Z,5.53
2018-09-21T02:56:43.431Z,6.30
2018-09-21T02:59:11.946Z,5.87
2018-09-21T03:01:40.533Z,5.80
2018-09-21T03:04:09.054Z,5.50
2018-09-21T03:06:37.595Z,5.73
2018-09-21T03:09:08.070Z,5.80
2018-09-21T03:11:36.723Z,5.30
2018-09-21T03:14:05.330Z,5.37
2018-09-21T03:16:33.844Z,6.20
2018-09-21T03:19:02.370Z,6.30
2018-09-21T03:21:30.909Z,5.73
2018-09-21T03:23:59.461Z,5.97
2018-09-21T03:26:27.990Z,6.37
2018-09-21T03:28:56.689Z,5.33
2018-09-21T03:31:25.174Z,6.03
2018-09-21T03:33:53.710Z,5.67
2018-09-21T03:36:22.240Z,6.40
2018-09-21T03:38:50.777Z,5.80
2018-09-21T03:41:19.337Z,5.43
2018-09-21T03:43:47.924Z,6.70
2018-09-21T03:46:16.429Z,5.40
2018-09-21T03:48:44.959Z,6.13
2018-09-21T03:51:13.470Z,6.30
2018-09-21T03:53:41.989Z,6.17
2018-09-21T03:56:10.498Z,6.40
2018-09-21T03:58:39.035Z,5.87
2018-09-21T04:01:07.708Z,6.47
2018-09-21T04:03:36.171Z,6.30
2018-09-21T04:06:04.705Z,6.80
2018-09-21T04:08:33.237Z,5.97
2018-09-21T04:11:01.745Z,6.90
2018-09-21T04:13:30.279Z,5.73
2018-09-21T04:15:58.805Z,6.50
2018-09-21T04:18:27.371Z,5.87
2018-09-21T04:20:55.873Z,5.57
2018-09-21T04:23:24.371Z,5.53
2018-09-21T04:25:52.905Z,6.40
2018-09-21T04:28:21.406Z,6.10
2018-09-21T04:30:49.927Z,5.53
2018-09-21T04:33:18.450Z,6.07
2018-09-21T04:35:47.017Z,7.60
2018-09-21T04:38:15.541Z,5.83
2018-09-21T04:40:44.101Z,5.80
2018-09-21T04:43:12.628Z,6.17
2018-09-21T04:45:41.275Z,5.77
2018-09-21T04:48:09.768Z,6.40
2018-09-21T04:50:38.294Z,6.37
2018-09-21T04:53:06.993Z,5.90
2018-09-21T04:55:35.533Z,5.90
2018-09-21T04:58:04.071Z,6.00
2018-09-21T05:00:32.628Z,6.10
2018-09-21T05:03:01.142Z,6.50
2018-09-21T05:05:29.733Z,7.10
2018-09-21T05:07:58.322Z,7.23
2018-09-21T05:10:26.879Z,6.97
2018-09-21T05:12:55.423Z,6.53
2018-09-21T05:15:23.973Z,7.13
2018-09-21T05:17:52.512Z,7.37
2018-09-21T05:20:21.153Z,6.93
2018-09-21T05:22:49.698Z,8.50
2018-09-21T05:25:18.241Z,6.93
2018-09-21T05:27:46.813Z,7.80
2018-09-21T05:30:15.336Z,8.67
2018-09-21T05:32:43.909Z,7.40
2018-09-21T05:35:12.502Z,7.90
2018-09-21T05:37:41.064Z,8.20
2018-09-21T05:40:09.591Z,7.60
2018-09-21T05:42:38.169Z,8.40
2018-09-21T05:45:07.058Z,7.10
2018-09-21T05:47:35.653Z,7.77
2018-09-21T05:50:04.220Z,6.77
2018-09-21T05:52:32.758Z,7.63
2018-09-21T05:55:01.278Z,7.30
2018-09-21T05:57:29.826Z,8.10
2018-09-21T05:59:58.351Z,8.27
2018-09-21T06:02:26.952Z,7.90
2018-09-21T06:05:00.949Z,8.60
2018-09-21T06:07:29.597Z,7.00
2018-09-21T06:09:58.125Z,7.60
2018-09-21T06:12:26.714Z,8.13
2018-09-21T06:14:55.269Z,7.23
2018-09-21T06:17:23.886Z,8.87
2018-09-21T06:19:52.599Z,8.50
2018-09-21T06:22:21.231Z,8.50
2018-09-21T06:24:49.834Z,8.83
2018-09-21T06:27:18.400Z,9.43
2018-09-21T06:29:47.157Z,8.07
2018-09-21T06:32:15.771Z,10.43
2018-09-21T06:34:44.325Z,8.77
2018-09-21T06:37:12.849Z,8.23
2018-09-21T06:39:41.420Z,8.80
2018-09-21T06:42:09.949Z,8.50
2018-09-21T06:44:38.515Z,8.40
2018-09-21T06:47:07.149Z,8.17
2018-09-21T06:49:35.694Z,7.70
2018-09-21T06:52:04.246Z,9.20
2018-09-21T06:54:32.820Z,7.00
2018-09-21T06:57:01.369Z,7.80
2018-09-21T06:59:29.894Z,7.80
2018-09-21T07:01:58.532Z,7.90
2018-09-21T07:04:27.082Z,8.27
2018-09-21T07:06:55.656Z,7.07
2018-09-21T07:09:24.204Z,8.00
2018-09-21T07:11:52.754Z,6.73
2018-09-21T07:14:21.385Z,7.30
2018-09-21T07:16:49.965Z,7.30
2018-09-21T07:19:18.661Z,7.33
2018-09-21T07:21:47.190Z,6.87
2018-09-21T07:24:15.756Z,6.67
2018-09-21T07:26:44.315Z,7.07
2018-09-21T07:29:12.842Z,6.50
2018-09-21T07:31:41.726Z,6.57
2018-09-21T07:34:10.309Z,7.00
2018-09-21T07:36:38.906Z,7.00
2018-09-21T07:39:08.058Z,8.90
2018-09-21T07:41:36.806Z,7.63
2018-09-21T07:44:05.406Z,5.43
2018-09-21T07:46:34.006Z,5.30
2018-09-21T07:49:02.596Z,6.33
2018-09-21T07:51:31.183Z,5.43
2018-09-21T07:53:59.797Z,6.27
2018-09-21T07:56:28.421Z,5.70
2018-09-21T07:58:56.994Z,5.90
2018-09-21T08:01:25.560Z,5.97
2018-09-21T08:03:54.125Z,5.77
2018-09-21T08:06:22.685Z,6.03
2018-09-21T08:08:51.205Z,5.70
2018-09-21T08:11:19.853Z,6.00
2018-09-21T08:13:48.395Z,5.70
2018-09-21T08:16:16.934Z,6.13
2018-09-21T08:18:45.466Z,5.47
2018-09-21T08:21:14.025Z,5.67
2018-09-21T08:23:42.585Z,5.80
2018-09-21T08:26:11.223Z,5.60
2018-09-21T08:28:39.845Z,6.23
2018-09-21T08:31:08.380Z,5.50
2018-09-21T08:33:36.937Z,6.07
2018-09-21T08:36:05.485Z,5.40
2018-09-21T08:38:34.025Z,5.60
2018-09-21T08:41:02.586Z,6.10
2018-09-21T08:43:31.178Z,5.50
2018-09-21T08:45:59.782Z,6.03
2018-09-21T08:48:28.330Z,5.83
2018-09-21T08:50:56.925Z,5.73
2018-09-21T08:53:25.615Z,6.03
2018-09-21T08:55:54.167Z,4.50
2018-09-21T08:58:22.730Z,5.00
2018-09-21T09:00:51.277Z,4.90
2018-09-21T09:03:19.874Z,5.90
2018-09-21T09:05:53.754Z,5.77
2018-09-21T09:08:23.982Z,5.50
2018-09-21T09:10:52.926Z,5.17
2018-09-21T09:13:21.482Z,5.27
2018-09-21T09:15:50.816Z,4.80
2018-09-21T09:18:19.533Z,5.03
2018-09-21T09:20:48.425Z,4.73
2018-09-21T09:23:17.066Z,5.20
2018-09-21T09:25:45.555Z,4.60
2018-09-21T09:28:14.132Z,4.80
2018-09-21T09:30:42.654Z,4.30
2018-09-21T09:33:11.229Z,4.53
2018-09-21T09:35:39.797Z,4.63
2018-09-21T09:38:08.431Z,5.60
2018-09-21T09:40:37.014Z,4.70
2018-09-21T09:43:05.743Z,5.23
2018-09-21T09:45:34.201Z,4.93
2018-09-21T09:48:02.715Z,5.27
2018-09-21T09:50:31.318Z,4.97
2018-09-21T09:52:59.901Z,4.67
2018-09-21T09:55:28.450Z,4.70
2018-09-21T09:57:56.953Z,5.10
2018-09-21T10:00:30.891Z,4.47
2018-09-21T10:02:59.382Z,4.80
2018-09-21T10:05:27.918Z,5.30
2018-09-21T10:07:56.549Z,4.87
2018-09-21T10:10:25.158Z,5.23
2018-09-21T10:12:53.705Z,4.97
2018-09-21T10:15:22.253Z,5.03
2018-09-21T10:17:50.768Z,4.70
2018-09-21T10:20:19.459Z,4.90
2018-09-21T10:22:48.061Z,4.97
2018-09-21T10:25:16.675Z,5.10
2018-09-21T10:27:45.378Z,5.30
2018-09-21T10:30:13.853Z,4.53
2018-09-21T10:32:42.398Z,4.87
2018-09-21T10:35:10.950Z,4.70
2018-09-21T10:37:39.516Z,4.53
2018-09-21T10:40:08.142Z,5.33
2018-09-21T10:42:36.724Z,5.87
2018-09-21T10:45:05.489Z,4.70
2018-09-21T10:47:34.081Z,4.80
2018-09-21T10:50:02.650Z,5.50
2018-09-21T10:52:31.279Z,4.47
2018-09-21T10:54:59.796Z,5.80
2018-09-21T10:57:28.353Z,5.73
2018-09-21T10:59:56.948Z,4.77
2018-09-21T11:02:25.536Z,4.47
2018-09-21T11:04:54.050Z,5.50
2018-09-21T11:07:22.630Z,5.67
2018-09-21T11:09:51.176Z,5.30
2018-09-21T11:12:19.726Z,5.27
2018-09-21T11:14:48.232Z,4.57
2018-09-21T11:17:16.820Z,5.60
2018-09-21T11:19:45.338Z,5.50
2018-09-21T11:22:13.882Z,5.23
2018-09-21T11:24:42.414Z,5.10
2018-09-21T11:27:10.962Z,4.60
2018-09-21T11:29:39.512Z,5.00
2018-09-21T11:32:08.096Z,4.33
2018-09-21T11:34:36.653Z,4.90
2018-09-21T11:37:05.302Z,4.40
2018-09-21T11:39:33.879Z,5.10
2018-09-21T11:42:02.562Z,4.30
2018-09-21T11:44:31.085Z,4.23
2018-09-21T11:46:59.644Z,3.93
2018-09-21T11:49:28.209Z,3.93
2018-09-21T11:51:56.737Z,4.23
2018-09-21T11:54:25.302Z,5.13
2018-09-21T11:56:53.822Z,4.63
2018-09-21T11:59:22.401Z,4.50
2018-09-21T12:01:50.968Z,4.00
2018-09-21T12:04:19.526Z,4.20
2018-09-21T12:06:48.217Z,4.13
2018-09-21T12:09:16.764Z,4.37
2018-09-21T12:11:45.409Z,4.70
2018-09-21T12:14:13.949Z,3.83
2018-09-21T12:16:42.494Z,4.00
2018-09-21T12:19:11.074Z,3.93
2018-09-21T12:21:39.691Z,3.87
2018-09-21T12:24:08.254Z,3.10
2018-09-21T12:26:36.786Z,2.87
2018-09-21T12:29:05.354Z,3.77
2018-09-21T12:31:33.889Z,2.40
2018-09-21T12:34:02.485Z,3.23
2018-09-21T12:36:31.072Z,2.80
2018-09-21T12:38:59.649Z,3.10
2018-09-21T12:41:28.189Z,2.43
2018-09-21T12:43:56.814Z,2.97
2018-09-21T12:46:28.372Z,3.17
2018-09-21T12:49:00.777Z,2.67
2018-09-21T12:51:29.328Z,2.50
2018-09-21T12:53:57.890Z,2.53
2018-09-21T12:56:26.891Z,2.37
2018-09-21T12:58:55.584Z,2.77
2018-09-21T13:01:24.064Z,2.53
2018-09-21T13:03:52.814Z,2.83
2018-09-21T13:06:21.423Z,3.60
2018-09-21T13:08:50.055Z,3.00
2018-09-21T13:11:18.607Z,2.30
2018-09-21T13:13:47.141Z,2.60
2018-09-21T13:16:15.718Z,2.40
2018-09-21T13:18:44.237Z,2.43
2018-09-21T13:21:12.799Z,2.63
2018-09-21T13:23:41.369Z,2.03
2018-09-21T13:26:11.065Z,2.00
2018-09-21T13:28:39.606Z,2.20
2018-09-21T13:31:08.299Z,2.00
2018-09-21T13:33:36.854Z,2.00
2018-09-21T13:36:05.585Z,2.00
2018-09-21T13:38:34.110Z,2.00
2018-09-21T13:41:02.680Z,2.03
2018-09-21T13:43:31.223Z,2.30
2018-09-21T13:45:59.784Z,2.40
2018-09-21T13:48:28.314Z,2.03
2018-09-21T13:50:56.877Z,1.80
2018-09-21T13:53:25.423Z,2.10
2018-09-21T13:55:53.950Z,2.00
2018-09-21T13:58:22.535Z,1.93
2018-09-21T14:00:51.085Z,2.07
2018-09-21T14:03:19.755Z,2.67
2018-09-21T14:05:48.369Z,2.30
2018-09-21T14:08:16.983Z,2.23
2018-09-21T14:10:45.563Z,1.83
2018-09-21T14:13:14.124Z,2.00
2018-09-21T14:15:42.824Z,1.70
2018-09-21T14:18:11.398Z,1.80
2018-09-21T14:20:39.967Z,2.27
2018-09-21T14:23:08.662Z,2.07
2018-09-21T14:25:37.327Z,1.90
2018-09-21T14:28:05.913Z,2.37
2018-09-21T14:30:34.453Z,1.80
2018-09-21T14:33:02.985Z,2.10
2018-09-21T14:35:31.566Z,1.93
2018-09-21T14:38:06.762Z,2.67
2018-09-21T14:40:35.278Z,2.00
2018-09-21T14:43:03.918Z,2.10
2018-09-21T14:45:32.457Z,2.47
2018-09-21T14:48:01.104Z,3.17
2018-09-21T14:50:29.714Z,3.20
2018-09-21T14:52:58.201Z,2.87
2018-09-21T14:55:26.761Z,2.30
2018-09-21T14:57:55.271Z,2.80
2018-09-21T15:00:23.905Z,2.03
2018-09-21T15:02:52.436Z,2.00
2018-09-21T15:05:21.014Z,0.90
2018-09-21T15:07:49.804Z,1.07
2018-09-21T15:10:18.422Z,1.00
2018-09-21T15:12:46.986Z,0.90
2018-09-21T15:15:15.581Z,0.70
2018-09-21T15:17:44.189Z,0.90
2018-09-21T15:20:12.789Z,0.70
2018-09-21T15:22:41.330Z,1.50
2018-09-21T15:25:09.865Z,0.83
2018-09-21T15:27:38.437Z,1.00
2018-09-21T15:30:07.005Z,0.80
2018-09-21T15:32:35.541Z,0.83
2018-09-21T15:35:04.153Z,1.13
2018-09-21T15:37:32.669Z,0.97
2018-09-21T15:40:01.216Z,0.90
2018-09-21T15:42:31.221Z,0.90
2018-09-21T15:44:59.770Z,1.10
2018-09-21T15:47:28.321Z,1.20
2018-09-21T15:49:56.919Z,1.10
2018-09-21T15:52:25.501Z,0.83
2018-09-21T15:54:54.066Z,0.70
2018-09-21T15:57:22.626Z,1.20
2018-09-21T15:59:51.269Z,1.00
2018-09-21T16:02:19.845Z,1.10
2018-09-21T16:04:48.357Z,1.20
2018-09-21T16:07:16.962Z,1.30
2018-09-21T16:09:45.507Z,1.00
2018-09-21T16:12:14.104Z,1.20
2018-09-21T16:14:42.627Z,1.00
2018-09-21T16:17:11.186Z,1.10
2018-09-21T16:19:39.770Z,1.03
2018-09-21T16:22:08.385Z,1.07
2018-09-21T16:24:36.937Z,1.00
2018-09-21T16:27:05.582Z,1.10
2018-09-21T16:29:34.144Z,1.93
2018-09-21T16:32:02.697Z,1.43
2018-09-21T16:34:31.262Z,1.00
2018-09-21T16:36:59.864Z,1.20
2018-09-21T16:39:28.373Z,1.13
2018-09-21T16:41:56.933Z,1.33
2018-09-21T16:44:25.559Z,1.57
2018-09-21T16:46:54.207Z,1.10
2018-09-21T16:49:22.761Z,1.20
2018-09-21T16:51:51.561Z,1.67
2018-09-21T16:54:20.177Z,2.30
2018-09-21T16:56:48.753Z,1.37
2018-09-21T16:59:17.354Z,1.10
2018-09-21T17:01:45.979Z,1.50
2018-09-21T17:04:14.597Z,1.60
2018-09-21T17:06:43.173Z,1.77
2018-09-21T17:09:12.685Z,1.97
2018-09-21T17:11:41.290Z,1.20
2018-09-21T17:14:09.882Z,1.20
2018-09-21T17:16:38.464Z,1.67
2018-09-21T17:19:07.243Z,1.50
2018-09-21T17:21:35.837Z,1.43
2018-09-21T17:24:04.467Z,1.30
2018-09-21T17:26:33.028Z,1.27
2018-09-21T17:29:01.656Z,1.57
2018-09-21T17:31:30.223Z,1.23
2018-09-21T17:33:59.755Z,1.70
2018-09-21T17:36:28.299Z,1.70
2018-09-21T17:38:56.845Z,1.30
2018-09-21T17:41:25.381Z,1.20
2018-09-21T17:43:54.086Z,1.63
2018-09-21T17:46:22.597Z,1.70
2018-09-21T17:48:51.153Z,1.50
2018-09-21T17:51:19.692Z,1.70
2018-09-21T17:53:48.347Z,1.80
2018-09-21T17:56:16.921Z,1.73
2018-09-21T17:58:45.487Z,2.90
2018-09-21T18:01:14.115Z,1.73
2018-09-21T18:03:42.638Z,2.00
2018-09-21T18:06:11.265Z,1.80
2018-09-21T18:08:40.085Z,2.03
2018-09-21T18:11:08.633Z,1.70
2018-09-21T18:13:37.189Z,2.00
2018-09-21T18:16:05.845Z,1.80
2018-09-21T18:18:34.393Z,2.00
2018-09-21T18:21:02.954Z,1.97
2018-09-21T18:23:31.654Z,2.10
2018-09-21T18:26:00.282Z,2.07
2018-09-21T18:28:28.821Z,1.83
2018-09-21T18:30:57.389Z,2.17
2018-09-21T18:33:25.927Z,1.70
2018-09-21T18:35:54.493Z,2.03
2018-09-21T18:38:23.073Z,2.00
2018-09-21T18:40:51.682Z,2.70
2018-09-21T18:43:20.307Z,2.00
2018-09-21T18:45:49.022Z,1.77
2018-09-21T18:48:17.620Z,2.10
2018-09-21T18:50:46.261Z,2.13
2018-09-21T18:53:14.836Z,2.40
2018-09-21T18:55:43.446Z,1.80
2018-09-21T18:58:12.017Z,2.00
2018-09-21T19:00:40.638Z,1.67
2018-09-21T19:03:09.234Z,1.63
2018-09-21T19:05:37.807Z,1.60
2018-09-21T19:08:06.467Z,1.80
2018-09-21T19:10:35.049Z,1.93
2018-09-21T19:13:05.720Z,1.80
2018-09-21T19:15:34.405Z,1.50
2018-09-21T19:18:02.955Z,1.70
2018-09-21T19:20:31.658Z,1.80
2018-09-21T19:23:00.201Z,1.43
2018-09-21T19:25:28.757Z,2.13
2018-09-21T19:27:57.305Z,1.73
2018-09-21T19:30:25.982Z,1.80
2018-09-21T19:32:54.554Z,1.67
2018-09-21T19:35:23.093Z,2.90
2018-09-21T19:37:51.720Z,1.20
2018-09-21T19:40:20.314Z,2.27
2018-09-21T19:42:49.057Z,2.20
2018-09-21T19:45:17.578Z,1.83
2018-09-21T19:47:46.045Z,1.70
2018-09-21T19:50:14.625Z,2.47
2018-09-21T19:52:43.237Z,1.90
2018-09-21T19:55:12.017Z,2.60
2018-09-21T19:57:40.586Z,1.70
2018-09-21T20:00:09.178Z,2.23
2018-09-21T20:02:37.749Z,1.90
2018-09-21T20:05:06.401Z,2.43
2018-09-21T20:07:34.921Z,2.00
2018-09-21T20:10:03.581Z,1.67
2018-09-21T20:12:32.096Z,2.67
2018-09-21T20:15:00.650Z,2.57
2018-09-21T20:17:29.182Z,2.10
2018-09-21T20:19:57.750Z,1.77
2018-09-21T20:22:26.314Z,2.07
2018-09-21T20:24:54.858Z,2.27
2018-09-21T20:27:23.385Z,2.80
2018-09-21T20:29:56.159Z,2.33
2018-09-21T20:32:30.176Z,2.50
2018-09-21T20:34:58.717Z,2.33
2018-09-21T20:37:27.236Z,2.43
2018-09-21T20:39:55.872Z,2.60
2018-09-21T20:42:24.458Z,2.27
2018-09-21T20:44:53.045Z,3.40
2018-09-21T20:47:21.587Z,2.90
2018-09-21T20:49:50.173Z,3.20
2018-09-21T20:52:18.815Z,3.07
2018-09-21T20:54:47.442Z,3.90
2018-09-21T20:57:15.966Z,3.57
2018-09-21T20:59:44.609Z,4.20
2018-09-21T21:02:13.183Z,3.63
2018-09-21T21:04:41.723Z,3.60
2018-09-21T21:07:10.249Z,4.37
2018-09-21T21:09:38.789Z,4.20
2018-09-21T21:12:07.342Z,4.40
2018-09-21T21:14:36.009Z,4.83
2018-09-21T21:17:04.577Z,4.73
2018-09-21T21:19:33.111Z,5.23
2018-09-21T21:22:01.661Z,4.90
2018-09-21T21:24:30.198Z,3.97
2018-09-21T21:26:58.729Z,5.27
2018-09-21T21:29:27.237Z,4.07
2018-09-21T21:31:55.791Z,5.07
2018-09-21T21:34:24.318Z,4.40
2018-09-21T21:36:53.226Z,3.30
2018-09-21T21:39:22.199Z,3.10
2018-09-21T21:41:50.729Z,3.03
2018-09-21T21:44:20.397Z,3.50
2018-09-21T21:46:48.946Z,3.10
2018-09-21T21:49:17.493Z,3.40
2018-09-21T21:51:46.189Z,2.60
2018-09-21T21:54:14.684Z,2.23
2018-09-21T21:56:43.253Z,2.30
2018-09-21T21:59:11.784Z,2.17
2018-09-21T22:01:46.370Z,2.27
2018-09-21T22:04:16.159Z,2.50
2018-09-21T22:06:44.713Z,2.13
2018-09-21T22:09:13.253Z,2.10
2018-09-21T22:11:47.230Z,2.07
2018-09-21T22:14:16.016Z,2.70
2018-09-21T22:16:44.633Z,2.23
2018-09-21T22:19:13.165Z,1.90
2018-09-21T22:21:41.713Z,1.83
2018-09-21T22:24:10.246Z,1.93
2018-09-21T22:26:38.856Z,1.97
2018-09-21T22:29:07.375Z,1.80
2018-09-21T22:31:35.897Z,1.90
2018-09-21T22:34:04.506Z,1.40
2018-09-21T22:36:33.036Z,1.50
2018-09-21T22:39:01.597Z,1.57
2018-09-21T22:41:30.112Z,1.80
2018-09-21T22:43:58.657Z,1.43
2018-09-21T22:46:27.174Z,1.40
2018-09-21T22:48:56.445Z,1.77
2018-09-21T22:51:24.948Z,1.27
2018-09-21T22:53:53.497Z,1.70
2018-09-21T22:56:22.013Z,1.60
2018-09-21T22:58:50.574Z,1.23
2018-09-21T23:01:19.128Z,1.70
2018-09-21T23:03:47.778Z,2.00
2018-09-21T23:06:16.305Z,1.30
2018-09-21T23:08:44.875Z,1.30
2018-09-21T23:11:13.388Z,1.57
2018-09-21T23:13:41.914Z,1.80
2018-09-21T23:16:10.437Z,1.50
2018-09-21T23:18:39.081Z,1.20
2018-09-21T23:21:07.590Z,1.10
2018-09-21T23:23:36.139Z,1.37
2018-09-21T23:26:04.685Z,1.20
2018-09-21T23:28:33.189Z,1.30
2018-09-21T23:31:01.741Z,1.40
2018-09-21T23:33:30.288Z,1.07
2018-09-21T23:35:58.810Z,1.10
2018-09-21T23:38:27.337Z,1.70
2018-09-21T23:40:55.961Z,1.10
2018-09-21T23:43:24.498Z,1.23
2018-09-21T23:45:53.033Z,1.17
2018-09-21T23:48:21.605Z,1.10
2018-09-21T23:50:50.213Z,1.03
2018-09-21T23:53:18.749Z,1.00
2018-09-21T23:55:47.289Z,1.17
2018-09-21T23:58:15.894Z,1.70
